Sebastian, Texas
Current Conditions -  °F | °C
As of 9:06 PM on Sunday 21 Dec 2014 (Local Time) from KHRL Reporting Station
Overcast Overcast  
Wind Chill: 63°   Ceiling: 700
Heat Index: 63°   Visibility: 8mi
Dew Point: 61°   Wind: 0mph
Humidity: 94%   Direction: NA
Pressure: 29.92"   Gusts: NA
Location:  26.34°N, 97.79°W
Report Text: KHRL 220306Z 00000KT 8SM BKN007 OVC038 17/16 A2992 RMK AO2
Loading
Personal Weather Stations






























Interactive Weather Map New forecast layout! Learn more

10-Day Weather Forecast

Advertisements
Track Severe Weather on mobile